sensor_id;sensor_type;location;lat;lon;timestamp;P1;durP1;ratioP1;P2;durP2;ratioP2
69856;SDS011;57147;53.582;10.112;2022-07-23T00:01:21;2.78;;;0.98;;
69856;SDS011;57147;53.582;10.112;2022-07-23T00:06:23;3.70;;;0.35;;
69856;SDS011;57147;53.582;10.112;2022-07-23T00:11:24;2.47;;;1.55;;
69856;SDS011;57147;53.582;10.112;2022-07-23T00:16:27;1.50;;;0.22;;
69856;SDS011;57147;53.582;10.112;2022-07-23T00:21:27;1.70;;;0.22;;
69856;SDS011;57147;53.582;10.112;2022-07-23T00:26:28;3.05;;;0.60;;
69856;SDS011;57147;53.582;10.112;2022-07-23T00:31:31;1.58;;;0.22;;
69856;SDS011;57147;53.582;10.112;2022-07-23T00:36:32;1.90;;;0.40;;
69856;SDS011;57147;53.582;10.112;2022-07-23T00:41:33;1.60;;;0.25;;
69856;SDS011;57147;53.582;10.112;2022-07-23T00:46:36;2.55;;;0.43;;
69856;SDS011;57147;53.582;10.112;2022-07-23T00:51:36;4.68;;;0.95;;
69856;SDS011;57147;53.582;10.112;2022-07-23T00:56:37;1.75;;;0.45;;
69856;SDS011;57147;53.582;10.112;2022-07-23T01:01:41;2.67;;;1.02;;
69856;SDS011;57147;53.582;10.112;2022-07-23T01:06:42;3.55;;;0.55;;
69856;SDS011;57147;53.582;10.112;2022-07-23T01:11:43;2.25;;;0.10;;
69856;SDS011;57147;53.582;10.112;2022-07-23T01:16:47;2.53;;;0.30;;
69856;SDS011;57147;53.582;10.112;2022-07-23T01:21:49;3.10;;;0.47;;
69856;SDS011;57147;53.582;10.112;2022-07-23T01:26:53;4.65;;;0.32;;
69856;SDS011;57147;53.582;10.112;2022-07-23T01:31:54;1.75;;;0.10;;
69856;SDS011;57147;53.582;10.112;2022-07-23T01:36:54;0.93;;;0.15;;
69856;SDS011;57147;53.582;10.112;2022-07-23T01:41:58;1.08;;;0.10;;
69856;SDS011;57147;53.582;10.112;2022-07-23T01:46:58;1.63;;;0.20;;
69856;SDS011;57147;53.582;10.112;2022-07-23T01:51:59;2.22;;;0.88;;
69856;SDS011;57147;53.582;10.112;2022-07-23T01:57:02;2.33;;;0.45;;
69856;SDS011;57147;53.582;10.112;2022-07-23T02:02:03;2.13;;;0.20;;
69856;SDS011;57147;53.582;10.112;2022-07-23T02:07:04;2.92;;;0.40;;
69856;SDS011;57147;53.582;10.112;2022-07-23T02:12:08;1.75;;;0.20;;
69856;SDS011;57147;53.582;10.112;2022-07-23T02:17:08;1.80;;;0.73;;
69856;SDS011;57147;53.582;10.112;2022-07-23T02:22:09;2.35;;;0.28;;
69856;SDS011;57147;53.582;10.112;2022-07-23T02:27:12;3.67;;;0.25;;
69856;SDS011;57147;53.582;10.112;2022-07-23T02:32:13;1.92;;;0.80;;
69856;SDS011;57147;53.582;10.112;2022-07-23T02:37:13;2.78;;;1.25;;
69856;SDS011;57147;53.582;10.112;2022-07-23T02:42:17;2.60;;;0.47;;
69856;SDS011;57147;53.582;10.112;2022-07-23T02:47:17;1.52;;;0.55;;
69856;SDS011;57147;53.582;10.112;2022-07-23T02:52:18;2.03;;;0.63;;
69856;SDS011;57147;53.582;10.112;2022-07-23T02:57:21;2.85;;;0.80;;
69856;SDS011;57147;53.582;10.112;2022-07-23T03:02:22;2.38;;;0.03;;
69856;SDS011;57147;53.582;10.112;2022-07-23T03:07:22;2.17;;;0.45;;
69856;SDS011;57147;53.582;10.112;2022-07-23T03:12:26;2.42;;;0.40;;
69856;SDS011;57147;53.582;10.112;2022-07-23T03:17:26;4.45;;;0.28;;
69856;SDS011;57147;53.582;10.112;2022-07-23T03:22:27;3.50;;;0.38;;
69856;SDS011;57147;53.582;10.112;2022-07-23T03:27:30;2.42;;;0.47;;
69856;SDS011;57147;53.582;10.112;2022-07-23T03:32:31;1.73;;;0.20;;
69856;SDS011;57147;53.582;10.112;2022-07-23T03:37:31;3.67;;;0.32;;
69856;SDS011;57147;53.582;10.112;2022-07-23T03:42:35;1.10;;;0.45;;
69856;SDS011;57147;53.582;10.112;2022-07-23T03:47:36;3.53;;;0.20;;
69856;SDS011;57147;53.582;10.112;2022-07-23T03:52:36;2.67;;;0.30;;
69856;SDS011;57147;53.582;10.112;2022-07-23T03:57:40;3.13;;;0.30;;
69856;SDS011;57147;53.582;10.112;2022-07-23T04:02:41;5.70;;;0.60;;
69856;SDS011;57147;53.582;10.112;2022-07-23T04:07:41;2.30;;;0.88;;
69856;SDS011;57147;53.582;10.112;2022-07-23T04:12:44;1.23;;;0.20;;
69856;SDS011;57147;53.582;10.112;2022-07-23T04:17:45;3.17;;;0.20;;
69856;SDS011;57147;53.582;10.112;2022-07-23T04:22:45;2.15;;;1.00;;
69856;SDS011;57147;53.582;10.112;2022-07-23T04:27:49;4.15;;;0.77;;
69856;SDS011;57147;53.582;10.112;2022-07-23T04:32:49;2.75;;;0.40;;
69856;SDS011;57147;53.582;10.112;2022-07-23T04:37:50;2.55;;;0.73;;
69856;SDS011;57147;53.582;10.112;2022-07-23T04:42:54;3.13;;;0.43;;
69856;SDS011;57147;53.582;10.112;2022-07-23T04:47:55;1.70;;;0.40;;
69856;SDS011;57147;53.582;10.112;2022-07-23T04:52:55;1.92;;;0.45;;
69856;SDS011;57147;53.582;10.112;2022-07-23T04:57:59;1.88;;;0.40;;
69856;SDS011;57147;53.582;10.112;2022-07-23T05:02:59;2.97;;;0.40;;
69856;SDS011;57147;53.582;10.112;2022-07-23T05:08:00;2.78;;;0.30;;
69856;SDS011;57147;53.582;10.112;2022-07-23T05:13:03;4.00;;;0.75;;
69856;SDS011;57147;53.582;10.112;2022-07-23T05:18:04;3.63;;;0.70;;
69856;SDS011;57147;53.582;10.112;2022-07-23T05:23:04;1.65;;;0.63;;
69856;SDS011;57147;53.582;10.112;2022-07-23T05:28:08;1.77;;;0.50;;
69856;SDS011;57147;53.582;10.112;2022-07-23T05:33:12;1.15;;;0.40;;
69856;SDS011;57147;53.582;10.112;2022-07-23T05:38:12;2.10;;;0.20;;
69856;SDS011;57147;53.582;10.112;2022-07-23T05:43:16;3.40;;;0.40;;
69856;SDS011;57147;53.582;10.112;2022-07-23T05:48:17;2.47;;;0.45;;
69856;SDS011;57147;53.582;10.112;2022-07-23T05:53:17;2.22;;;0.25;;
69856;SDS011;57147;53.582;10.112;2022-07-23T05:58:21;1.13;;;0.20;;
69856;SDS011;57147;53.582;10.112;2022-07-23T06:03:21;1.35;;;0.20;;
69856;SDS011;57147;53.582;10.112;2022-07-23T06:08:22;0.65;;;0.45;;
69856;SDS011;57147;53.582;10.112;2022-07-23T06:13:25;2.70;;;0.50;;
69856;SDS011;57147;53.582;10.112;2022-07-23T06:18:26;2.70;;;0.40;;
69856;SDS011;57147;53.582;10.112;2022-07-23T06:23:26;1.73;;;0.63;;
69856;SDS011;57147;53.582;10.112;2022-07-23T06:28:29;1.70;;;0.32;;
69856;SDS011;57147;53.582;10.112;2022-07-23T06:33:30;1.75;;;0.47;;
69856;SDS011;57147;53.582;10.112;2022-07-23T06:38:31;3.03;;;0.22;;
69856;SDS011;57147;53.582;10.112;2022-07-23T06:43:34;1.98;;;0.68;;
69856;SDS011;57147;53.582;10.112;2022-07-23T06:48:35;3.13;;;0.45;;
69856;SDS011;57147;53.582;10.112;2022-07-23T06:53:35;3.28;;;0.47;;
69856;SDS011;57147;53.582;10.112;2022-07-23T06:58:39;2.95;;;0.45;;
69856;SDS011;57147;53.582;10.112;2022-07-23T07:03:39;1.42;;;0.52;;
69856;SDS011;57147;53.582;10.112;2022-07-23T07:08:40;2.28;;;0.90;;
69856;SDS011;57147;53.582;10.112;2022-07-23T07:13:43;1.30;;;0.80;;
69856;SDS011;57147;53.582;10.112;2022-07-23T07:18:44;3.33;;;0.20;;
69856;SDS011;57147;53.582;10.112;2022-07-23T07:23:44;2.38;;;0.30;;
69856;SDS011;57147;53.582;10.112;2022-07-23T07:28:48;1.45;;;0.03;;
69856;SDS011;57147;53.582;10.112;2022-07-23T07:33:48;0.85;;;0.00;;
69856;SDS011;57147;53.582;10.112;2022-07-23T07:38:49;2.28;;;0.20;;
69856;SDS011;57147;53.582;10.112;2022-07-23T07:43:52;1.88;;;0.38;;
69856;SDS011;57147;53.582;10.112;2022-07-23T07:48:53;2.60;;;0.30;;
69856;SDS011;57147;53.582;10.112;2022-07-23T07:53:54;3.97;;;0.77;;
69856;SDS011;57147;53.582;10.112;2022-07-23T07:58:57;2.80;;;0.88;;
69856;SDS011;57147;53.582;10.112;2022-07-23T08:03:58;2.63;;;0.47;;
69856;SDS011;57147;53.582;10.112;2022-07-23T08:08:58;1.17;;;0.20;;
69856;SDS011;57147;53.582;10.112;2022-07-23T08:14:02;2.05;;;0.25;;
69856;SDS011;57147;53.582;10.112;2022-07-23T08:19:02;1.23;;;0.28;;
69856;SDS011;57147;53.582;10.112;2022-07-23T08:24:03;1.30;;;0.45;;
69856;SDS011;57147;53.582;10.112;2022-07-23T08:29:07;2.45;;;0.80;;
69856;SDS011;57147;53.582;10.112;2022-07-23T08:34:07;2.58;;;0.47;;
69856;SDS011;57147;53.582;10.112;2022-07-23T08:39:08;1.33;;;0.22;;
69856;SDS011;57147;53.582;10.112;2022-07-23T08:44:11;0.93;;;0.22;;
69856;SDS011;57147;53.582;10.112;2022-07-23T08:49:13;1.15;;;0.20;;
69856;SDS011;57147;53.582;10.112;2022-07-23T08:54:14;2.17;;;0.43;;
69856;SDS011;57147;53.582;10.112;2022-07-23T08:59:17;0.50;;;0.20;;
69856;SDS011;57147;53.582;10.112;2022-07-23T09:04:18;0.63;;;0.32;;
69856;SDS011;57147;53.582;10.112;2022-07-23T09:09:19;2.50;;;0.52;;
69856;SDS011;57147;53.582;10.112;2022-07-23T09:19:42;1.67;;;0.00;;
69856;SDS011;57147;53.582;10.112;2022-07-23T09:30:10;1.23;;;0.25;;
69856;SDS011;57147;53.582;10.112;2022-07-23T09:35:11;0.60;;;0.30;;
69856;SDS011;57147;53.582;10.112;2022-07-23T09:40:12;1.08;;;0.60;;
69856;SDS011;57147;53.582;10.112;2022-07-23T09:45:15;1.55;;;0.20;;
69856;SDS011;57147;53.582;10.112;2022-07-23T09:50:19;1.10;;;0.70;;
69856;SDS011;57147;53.582;10.112;2022-07-23T09:55:21;0.60;;;0.20;;
69856;SDS011;57147;53.582;10.112;2022-07-23T10:00:34;2.63;;;0.52;;
69856;SDS011;57147;53.582;10.112;2022-07-23T10:05:35;1.83;;;0.55;;
69856;SDS011;57147;53.582;10.112;2022-07-23T10:10:37;2.53;;;0.20;;
69856;SDS011;57147;53.582;10.112;2022-07-23T10:15:42;1.88;;;0.15;;
69856;SDS011;57147;53.582;10.112;2022-07-23T10:20:42;1.52;;;0.00;;
69856;SDS011;57147;53.582;10.112;2022-07-23T10:25:46;0.88;;;0.20;;
69856;SDS011;57147;53.582;10.112;2022-07-23T10:31:00;0.38;;;0.30;;
69856;SDS011;57147;53.582;10.112;2022-07-23T10:36:07;0.77;;;0.15;;
69856;SDS011;57147;53.582;10.112;2022-07-23T10:41:17;1.08;;;0.20;;
69856;SDS011;57147;53.582;10.112;2022-07-23T10:46:34;1.35;;;0.52;;
69856;SDS011;57147;53.582;10.112;2022-07-23T10:51:35;0.25;;;0.10;;
69856;SDS011;57147;53.582;10.112;2022-07-23T10:56:51;1.55;;;1.05;;
69856;SDS011;57147;53.582;10.112;2022-07-23T11:07:23;1.85;;;0.40;;
69856;SDS011;57147;53.582;10.112;2022-07-23T11:12:33;1.13;;;0.40;;
69856;SDS011;57147;53.582;10.112;2022-07-23T11:17:38;2.15;;;1.02;;
69856;SDS011;57147;53.582;10.112;2022-07-23T11:22:59;0.50;;;0.10;;
69856;SDS011;57147;53.582;10.112;2022-07-23T11:28:10;1.80;;;0.30;;
69856;SDS011;57147;53.582;10.112;2022-07-23T11:33:20;0.70;;;0.60;;
69856;SDS011;57147;53.582;10.112;2022-07-23T11:38:22;1.95;;;0.05;;
69856;SDS011;57147;53.582;10.112;2022-07-23T11:43:23;1.00;;;0.15;;
69856;SDS011;57147;53.582;10.112;2022-07-23T11:48:27;1.48;;;0.25;;
69856;SDS011;57147;53.582;10.112;2022-07-23T11:53:29;1.08;;;0.15;;
69856;SDS011;57147;53.582;10.112;2022-07-23T11:58:31;0.98;;;0.22;;
69856;SDS011;57147;53.582;10.112;2022-07-23T12:03:34;0.77;;;0.40;;
69856;SDS011;57147;53.582;10.112;2022-07-23T12:08:36;1.90;;;0.22;;
69856;SDS011;57147;53.582;10.112;2022-07-23T12:13:41;0.77;;;0.50;;
69856;SDS011;57147;53.582;10.112;2022-07-23T12:18:44;1.13;;;0.50;;
69856;SDS011;57147;53.582;10.112;2022-07-23T12:23:47;1.13;;;0.30;;
69856;SDS011;57147;53.582;10.112;2022-07-23T12:28:51;1.33;;;0.13;;
69856;SDS011;57147;53.582;10.112;2022-07-23T12:33:55;1.52;;;0.57;;
69856;SDS011;57147;53.582;10.112;2022-07-23T12:38:55;1.45;;;0.68;;
69856;SDS011;57147;53.582;10.112;2022-07-23T12:43:56;0.98;;;0.13;;
69856;SDS011;57147;53.582;10.112;2022-07-23T12:48:59;2.28;;;0.30;;
69856;SDS011;57147;53.582;10.112;2022-07-23T12:54:03;2.30;;;0.20;;
69856;SDS011;57147;53.582;10.112;2022-07-23T12:59:06;1.55;;;0.40;;
69856;SDS011;57147;53.582;10.112;2022-07-23T13:04:11;1.20;;;0.15;;
69856;SDS011;57147;53.582;10.112;2022-07-23T13:09:14;1.63;;;0.38;;
69856;SDS011;57147;53.582;10.112;2022-07-23T13:14:16;1.83;;;0.47;;
69856;SDS011;57147;53.582;10.112;2022-07-23T13:19:21;2.67;;;0.25;;
69856;SDS011;57147;53.582;10.112;2022-07-23T13:24:22;2.55;;;0.22;;
69856;SDS011;57147;53.582;10.112;2022-07-23T13:29:22;2.40;;;0.98;;
69856;SDS011;57147;53.582;10.112;2022-07-23T13:34:26;1.10;;;0.20;;
69856;SDS011;57147;53.582;10.112;2022-07-23T13:39:26;0.93;;;0.00;;
69856;SDS011;57147;53.582;10.112;2022-07-23T13:44:27;1.02;;;0.17;;
69856;SDS011;57147;53.582;10.112;2022-07-23T13:49:30;1.33;;;0.52;;
69856;SDS011;57147;53.582;10.112;2022-07-23T13:54:31;1.77;;;0.47;;
69856;SDS011;57147;53.582;10.112;2022-07-23T13:59:32;0.85;;;0.17;;
69856;SDS011;57147;53.582;10.112;2022-07-23T14:04:35;1.33;;;0.22;;
69856;SDS011;57147;53.582;10.112;2022-07-23T14:09:36;1.90;;;0.10;;
69856;SDS011;57147;53.582;10.112;2022-07-23T14:14:37;1.30;;;0.50;;
69856;SDS011;57147;53.582;10.112;2022-07-23T14:19:40;1.17;;;0.20;;
69856;SDS011;57147;53.582;10.112;2022-07-23T14:24:40;0.47;;;0.22;;
69856;SDS011;57147;53.582;10.112;2022-07-23T14:29:41;1.77;;;0.30;;
69856;SDS011;57147;53.582;10.112;2022-07-23T14:34:45;1.85;;;0.30;;
69856;SDS011;57147;53.582;10.112;2022-07-23T14:39:45;1.70;;;0.00;;
69856;SDS011;57147;53.582;10.112;2022-07-23T14:44:46;1.50;;;0.20;;
69856;SDS011;57147;53.582;10.112;2022-07-23T14:49:49;1.48;;;0.22;;
69856;SDS011;57147;53.582;10.112;2022-07-23T14:54:50;1.73;;;0.10;;
69856;SDS011;57147;53.582;10.112;2022-07-23T14:59:51;1.80;;;0.40;;
69856;SDS011;57147;53.582;10.112;2022-07-23T15:04:54;1.55;;;0.25;;
69856;SDS011;57147;53.582;10.112;2022-07-23T15:09:55;1.50;;;0.13;;
69856;SDS011;57147;53.582;10.112;2022-07-23T15:14:56;1.80;;;0.30;;
69856;SDS011;57147;53.582;10.112;2022-07-23T15:19:59;1.30;;;0.45;;
69856;SDS011;57147;53.582;10.112;2022-07-23T15:24:59;2.03;;;0.20;;
69856;SDS011;57147;53.582;10.112;2022-07-23T15:30:00;0.75;;;0.43;;
69856;SDS011;57147;53.582;10.112;2022-07-23T15:35:04;2.00;;;0.20;;
69856;SDS011;57147;53.582;10.112;2022-07-23T15:40:06;3.65;;;0.35;;
69856;SDS011;57147;53.582;10.112;2022-07-23T15:45:08;1.50;;;0.32;;
69856;SDS011;57147;53.582;10.112;2022-07-23T15:50:12;0.73;;;0.10;;
69856;SDS011;57147;53.582;10.112;2022-07-23T15:55:13;1.08;;;0.20;;
69856;SDS011;57147;53.582;10.112;2022-07-23T16:00:13;2.05;;;0.52;;
69856;SDS011;57147;53.582;10.112;2022-07-23T16:05:17;1.67;;;0.32;;
69856;SDS011;57147;53.582;10.112;2022-07-23T16:10:18;2.63;;;0.45;;
69856;SDS011;57147;53.582;10.112;2022-07-23T16:15:19;0.68;;;0.08;;
69856;SDS011;57147;53.582;10.112;2022-07-23T16:20:23;0.98;;;0.52;;
69856;SDS011;57147;53.582;10.112;2022-07-23T16:25:24;1.58;;;0.22;;
69856;SDS011;57147;53.582;10.112;2022-07-23T16:30:25;1.48;;;0.22;;
69856;SDS011;57147;53.582;10.112;2022-07-23T16:35:28;0.77;;;0.20;;
69856;SDS011;57147;53.582;10.112;2022-07-23T16:40:29;1.00;;;0.50;;
69856;SDS011;57147;53.582;10.112;2022-07-23T16:45:31;1.83;;;0.60;;
69856;SDS011;57147;53.582;10.112;2022-07-23T16:50:34;1.38;;;0.40;;
69856;SDS011;57147;53.582;10.112;2022-07-23T16:55:35;1.05;;;0.20;;
69856;SDS011;57147;53.582;10.112;2022-07-23T17:00:36;1.23;;;0.30;;
69856;SDS011;57147;53.582;10.112;2022-07-23T17:05:39;1.52;;;0.52;;
69856;SDS011;57147;53.582;10.112;2022-07-23T17:10:40;1.42;;;0.57;;
69856;SDS011;57147;53.582;10.112;2022-07-23T17:15:41;1.08;;;0.50;;
69856;SDS011;57147;53.582;10.112;2022-07-23T17:20:44;1.92;;;0.50;;
69856;SDS011;57147;53.582;10.112;2022-07-23T17:31:16;1.58;;;0.20;;
69856;SDS011;57147;53.582;10.112;2022-07-23T17:36:19;1.65;;;0.60;;
69856;SDS011;57147;53.582;10.112;2022-07-23T17:41:19;0.93;;;0.55;;
69856;SDS011;57147;53.582;10.112;2022-07-23T17:46:20;1.45;;;0.73;;
69856;SDS011;57147;53.582;10.112;2022-07-23T17:51:23;1.80;;;0.17;;
69856;SDS011;57147;53.582;10.112;2022-07-23T17:56:24;1.85;;;0.30;;
69856;SDS011;57147;53.582;10.112;2022-07-23T18:01:25;1.90;;;0.30;;
69856;SDS011;57147;53.582;10.112;2022-07-23T18:06:28;6.20;;;0.40;;
69856;SDS011;57147;53.582;10.112;2022-07-23T18:11:29;0.80;;;0.05;;
69856;SDS011;57147;53.582;10.112;2022-07-23T18:16:29;1.42;;;0.43;;
69856;SDS011;57147;53.582;10.112;2022-07-23T18:21:33;3.72;;;0.13;;
69856;SDS011;57147;53.582;10.112;2022-07-23T18:26:34;1.70;;;0.47;;
69856;SDS011;57147;53.582;10.112;2022-07-23T18:31:34;1.65;;;0.35;;
69856;SDS011;57147;53.582;10.112;2022-07-23T18:36:38;2.08;;;0.30;;
69856;SDS011;57147;53.582;10.112;2022-07-23T18:41:38;1.27;;;0.43;;
69856;SDS011;57147;53.582;10.112;2022-07-23T18:46:39;2.30;;;0.73;;
69856;SDS011;57147;53.582;10.112;2022-07-23T18:51:42;1.00;;;0.13;;
69856;SDS011;57147;53.582;10.112;2022-07-23T18:56:43;1.45;;;0.60;;
69856;SDS011;57147;53.582;10.112;2022-07-23T19:01:44;2.28;;;0.40;;
69856;SDS011;57147;53.582;10.112;2022-07-23T19:06:47;2.97;;;0.70;;
69856;SDS011;57147;53.582;10.112;2022-07-23T19:11:48;2.22;;;0.40;;
69856;SDS011;57147;53.582;10.112;2022-07-23T19:16:48;2.50;;;0.73;;
69856;SDS011;57147;53.582;10.112;2022-07-23T19:21:52;3.35;;;1.90;;
69856;SDS011;57147;53.582;10.112;2022-07-23T19:26:52;3.40;;;0.80;;
69856;SDS011;57147;53.582;10.112;2022-07-23T19:31:53;2.30;;;0.98;;
69856;SDS011;57147;53.582;10.112;2022-07-23T19:36:57;5.65;;;2.80;;
69856;SDS011;57147;53.582;10.112;2022-07-23T19:41:57;5.07;;;2.50;;
69856;SDS011;57147;53.582;10.112;2022-07-23T19:46:58;4.00;;;1.98;;
69856;SDS011;57147;53.582;10.112;2022-07-23T19:52:01;6.60;;;3.40;;
69856;SDS011;57147;53.582;10.112;2022-07-23T19:57:02;6.28;;;3.47;;
69856;SDS011;57147;53.582;10.112;2022-07-23T20:02:03;11.77;;;6.53;;
69856;SDS011;57147;53.582;10.112;2022-07-23T20:07:06;6.28;;;3.25;;
69856;SDS011;57147;53.582;10.112;2022-07-23T20:12:07;8.95;;;5.22;;
69856;SDS011;57147;53.582;10.112;2022-07-23T20:17:08;7.57;;;4.10;;
69856;SDS011;57147;53.582;10.112;2022-07-23T20:22:12;5.35;;;1.90;;
69856;SDS011;57147;53.582;10.112;2022-07-23T20:27:13;3.55;;;1.15;;
69856;SDS011;57147;53.582;10.112;2022-07-23T20:32:13;5.10;;;1.55;;
69856;SDS011;57147;53.582;10.112;2022-07-23T20:37:17;3.60;;;1.73;;
69856;SDS011;57147;53.582;10.112;2022-07-23T20:42:17;2.92;;;1.42;;
69856;SDS011;57147;53.582;10.112;2022-07-23T20:47:18;6.07;;;3.40;;
69856;SDS011;57147;53.582;10.112;2022-07-23T20:52:21;4.35;;;1.73;;
69856;SDS011;57147;53.582;10.112;2022-07-23T20:57:22;4.90;;;2.05;;
69856;SDS011;57147;53.582;10.112;2022-07-23T21:02:22;5.90;;;2.55;;
69856;SDS011;57147;53.582;10.112;2022-07-23T21:07:26;4.85;;;2.53;;
69856;SDS011;57147;53.582;10.112;2022-07-23T21:12:26;4.75;;;1.83;;
69856;SDS011;57147;53.582;10.112;2022-07-23T21:17:27;4.45;;;2.65;;
69856;SDS011;57147;53.582;10.112;2022-07-23T21:22:32;3.97;;;2.22;;
69856;SDS011;57147;53.582;10.112;2022-07-23T21:27:32;9.10;;;5.03;;
69856;SDS011;57147;53.582;10.112;2022-07-23T21:32:33;10.02;;;4.80;;
69856;SDS011;57147;53.582;10.112;2022-07-23T21:37:37;4.32;;;1.73;;
69856;SDS011;57147;53.582;10.112;2022-07-23T21:42:37;6.10;;;2.15;;
69856;SDS011;57147;53.582;10.112;2022-07-23T21:47:38;4.32;;;2.05;;
69856;SDS011;57147;53.582;10.112;2022-07-23T21:52:41;3.75;;;2.05;;
69856;SDS011;57147;53.582;10.112;2022-07-23T21:57:42;4.15;;;1.98;;
69856;SDS011;57147;53.582;10.112;2022-07-23T22:02:42;5.05;;;2.95;;
69856;SDS011;57147;53.582;10.112;2022-07-23T22:07:46;5.95;;;2.00;;
69856;SDS011;57147;53.582;10.112;2022-07-23T22:12:54;3.92;;;1.65;;
69856;SDS011;57147;53.582;10.112;2022-07-23T22:17:55;4.28;;;2.42;;
69856;SDS011;57147;53.582;10.112;2022-07-23T22:22:58;4.32;;;2.55;;
69856;SDS011;57147;53.582;10.112;2022-07-23T22:27:59;5.15;;;2.13;;
69856;SDS011;57147;53.582;10.112;2022-07-23T22:33:00;5.45;;;1.95;;
69856;SDS011;57147;53.582;10.112;2022-07-23T22:38:03;4.10;;;1.98;;
69856;SDS011;57147;53.582;10.112;2022-07-23T22:43:04;5.75;;;2.70;;
69856;SDS011;57147;53.582;10.112;2022-07-23T22:48:05;4.43;;;2.63;;
69856;SDS011;57147;53.582;10.112;2022-07-23T22:53:08;5.25;;;2.10;;
69856;SDS011;57147;53.582;10.112;2022-07-23T22:58:10;3.10;;;1.83;;
69856;SDS011;57147;53.582;10.112;2022-07-23T23:03:10;4.97;;;2.22;;
69856;SDS011;57147;53.582;10.112;2022-07-23T23:08:13;3.35;;;1.63;;
69856;SDS011;57147;53.582;10.112;2022-07-23T23:13:14;4.75;;;2.88;;
69856;SDS011;57147;53.582;10.112;2022-07-23T23:18:15;5.60;;;2.38;;
69856;SDS011;57147;53.582;10.112;2022-07-23T23:23:18;4.25;;;2.53;;
69856;SDS011;57147;53.582;10.112;2022-07-23T23:28:19;6.15;;;3.90;;
69856;SDS011;57147;53.582;10.112;2022-07-23T23:33:19;5.00;;;3.08;;
69856;SDS011;57147;53.582;10.112;2022-07-23T23:38:22;5.40;;;2.60;;
69856;SDS011;57147;53.582;10.112;2022-07-23T23:43:24;4.65;;;2.80;;
69856;SDS011;57147;53.582;10.112;2022-07-23T23:48:25;8.30;;;4.57;;
69856;SDS011;57147;53.582;10.112;2022-07-23T23:53:28;4.25;;;2.50;;
69856;SDS011;57147;53.582;10.112;2022-07-23T23:58:29;6.82;;;2.80;;
